createdAt,value
2022-12-17T00:00:24.552Z,29.50
2022-12-17T00:03:48.046Z,31.07
2022-12-17T00:07:09.493Z,38.17
2022-12-17T00:10:29.822Z,39.47
2022-12-17T00:13:50.013Z,38.03
2022-12-17T00:17:11.748Z,34.40
2022-12-17T00:20:32.000Z,30.53
2022-12-17T00:23:53.630Z,29.73
2022-12-17T00:27:16.789Z,29.80
2022-12-17T00:30:37.042Z,30.43
2022-12-17T00:33:57.384Z,30.90
2022-12-17T00:37:18.200Z,29.27
2022-12-17T00:40:39.782Z,29.53
2022-12-17T00:43:59.916Z,29.97
2022-12-17T00:47:20.185Z,29.10
2022-12-17T00:50:36.733Z,29.97
2022-12-17T00:53:56.989Z,28.40
2022-12-17T00:57:18.571Z,30.07
2022-12-17T01:00:50.289Z,29.40
2022-12-17T01:04:10.488Z,28.83
2022-12-17T01:07:30.759Z,29.43
2022-12-17T01:10:50.966Z,30.37
2022-12-17T01:14:12.569Z,30.60
2022-12-17T01:17:32.821Z,31.50
2022-12-17T01:20:53.212Z,31.17
2022-12-17T01:24:14.152Z,31.30
2022-12-17T01:27:34.308Z,30.90
2022-12-17T01:30:56.828Z,32.03
2022-12-17T01:34:17.080Z,31.43
2022-12-17T01:37:37.154Z,29.00
2022-12-17T01:40:57.357Z,29.70
2022-12-17T01:44:17.703Z,29.80
2022-12-17T01:47:39.484Z,28.37
2022-12-17T01:51:02.784Z,28.23
2022-12-17T01:54:23.459Z,28.53
2022-12-17T01:57:44.204Z,27.07
2022-12-17T02:01:04.576Z,27.33
2022-12-17T02:04:27.605Z,27.93
2022-12-17T02:08:01.990Z,26.87
2022-12-17T02:11:33.841Z,27.33
2022-12-17T02:15:00.363Z,26.93
2022-12-17T02:18:26.964Z,25.47
2022-12-17T02:21:51.085Z,26.23
2022-12-17T02:25:31.781Z,25.37
2022-12-17T02:28:59.918Z,26.63
2022-12-17T02:32:21.117Z,25.70
2022-12-17T02:35:45.853Z,24.70
2022-12-17T02:39:06.115Z,24.63
2022-12-17T02:42:26.371Z,24.30
2022-12-17T02:45:48.046Z,25.17
2022-12-17T02:49:08.442Z,24.63
2022-12-17T02:52:34.788Z,24.97
2022-12-17T02:55:55.956Z,23.90
2022-12-17T02:59:21.633Z,24.70
2022-12-17T03:02:43.365Z,24.37
2022-12-17T03:06:03.594Z,24.17
2022-12-17T03:09:23.951Z,24.80
2022-12-17T03:12:44.141Z,25.23
2022-12-17T03:16:04.442Z,25.30
2022-12-17T03:19:27.334Z,24.97
2022-12-17T03:22:47.727Z,26.20
2022-12-17T03:26:08.060Z,27.87
2022-12-17T03:29:28.328Z,29.47
2022-12-17T03:32:48.563Z,24.50
2022-12-17T03:36:12.948Z,25.73
2022-12-17T03:39:33.167Z,27.00
2022-12-17T03:42:53.461Z,27.03
2022-12-17T03:46:28.308Z,29.87
2022-12-17T03:49:48.315Z,29.50
2022-12-17T03:53:09.994Z,28.53
2022-12-17T03:56:30.396Z,28.33
2022-12-17T03:59:50.443Z,27.07
2022-12-17T04:03:11.183Z,24.73
2022-12-17T04:06:31.409Z,25.47
2022-12-17T04:09:53.210Z,23.00
2022-12-17T04:13:13.386Z,24.27
2022-12-17T04:16:33.727Z,23.50
2022-12-17T04:19:54.035Z,23.70
2022-12-17T04:23:14.376Z,24.63
2022-12-17T04:26:35.873Z,24.13
2022-12-17T04:29:56.189Z,22.93
2022-12-17T04:33:16.410Z,22.90
2022-12-17T04:36:36.798Z,22.77
2022-12-17T04:39:56.982Z,23.10
2022-12-17T04:43:25.643Z,22.80
2022-12-17T04:46:45.981Z,22.77
2022-12-17T04:50:06.208Z,23.43
2022-12-17T04:53:26.482Z,23.67
2022-12-17T04:56:46.745Z,23.27
2022-12-17T05:00:08.370Z,23.33
2022-12-17T05:03:30.726Z,22.10
2022-12-17T05:06:51.041Z,22.17
2022-12-17T05:10:11.344Z,22.93
2022-12-17T05:13:31.650Z,22.57
2022-12-17T05:16:53.027Z,22.60
2022-12-17T05:20:13.365Z,22.77
2022-12-17T05:23:33.897Z,22.07
2022-12-17T05:26:54.469Z,22.53
2022-12-17T05:30:17.264Z,23.20
2022-12-17T05:33:39.191Z,23.50
2022-12-17T05:36:59.724Z,21.83
2022-12-17T05:40:20.004Z,21.63
2022-12-17T05:43:40.022Z,25.80
2022-12-17T05:47:00.318Z,30.53
2022-12-17T05:50:22.742Z,26.93
2022-12-17T05:53:39.470Z,23.10
2022-12-17T05:56:59.889Z,21.27
2022-12-17T06:00:20.249Z,22.87
2022-12-17T06:03:40.905Z,22.60
2022-12-17T06:07:02.772Z,22.77
2022-12-17T06:10:23.611Z,22.43
2022-12-17T06:13:43.888Z,22.03
2022-12-17T06:17:04.041Z,23.23
2022-12-17T06:20:27.019Z,21.43
2022-12-17T06:23:48.445Z,21.53
2022-12-17T06:27:08.883Z,22.17
2022-12-17T06:30:26.321Z,21.97
2022-12-17T06:33:46.497Z,21.47
2022-12-17T06:37:06.761Z,21.53
2022-12-17T06:40:29.564Z,21.23
2022-12-17T06:43:49.809Z,20.73
2022-12-17T06:47:10.189Z,21.47
2022-12-17T06:50:30.508Z,21.30
2022-12-17T06:53:50.847Z,21.13
2022-12-17T06:57:23.752Z,21.53
2022-12-17T07:00:44.551Z,21.37
2022-12-17T07:04:05.016Z,20.03
2022-12-17T07:07:25.313Z,21.13
2022-12-17T07:10:45.603Z,21.07
2022-12-17T07:14:07.451Z,19.07
2022-12-17T07:17:27.657Z,19.80
2022-12-17T07:20:47.830Z,20.40
2022-12-17T07:24:08.063Z,19.20
2022-12-17T07:27:28.316Z,21.63
2022-12-17T07:30:55.508Z,21.57
2022-12-17T07:34:15.899Z,21.87
2022-12-17T07:37:36.208Z,21.50
2022-12-17T07:40:56.384Z,21.37
2022-12-17T07:44:17.568Z,22.17
2022-12-17T07:47:39.113Z,21.20
2022-12-17T07:50:59.409Z,20.63
2022-12-17T07:54:19.667Z,19.13
2022-12-17T07:57:40.066Z,20.40
2022-12-17T08:01:00.304Z,19.80
2022-12-17T08:04:21.845Z,20.10
2022-12-17T08:07:42.096Z,20.07
2022-12-17T08:11:07.416Z,19.87
2022-12-17T08:14:27.672Z,21.03
2022-12-17T08:17:47.921Z,20.33
2022-12-17T08:21:09.417Z,21.07
2022-12-17T08:24:29.733Z,20.83
2022-12-17T08:27:49.872Z,20.07
2022-12-17T08:31:10.217Z,19.63
2022-12-17T08:34:30.521Z,19.73
2022-12-17T08:38:03.466Z,20.67
2022-12-17T08:41:23.492Z,20.33
2022-12-17T08:44:43.669Z,18.57
2022-12-17T08:48:04.448Z,19.23
2022-12-17T08:51:36.255Z,19.60
2022-12-17T08:54:57.847Z,19.83
2022-12-17T08:58:18.174Z,19.97
2022-12-17T09:01:38.419Z,18.67
2022-12-17T09:04:58.349Z,19.07
2022-12-17T09:08:21.328Z,19.10
2022-12-17T09:11:42.761Z,18.00
2022-12-17T09:15:03.250Z,19.53
2022-12-17T09:18:23.607Z,18.87
2022-12-17T09:21:45.416Z,17.97
2022-12-17T09:25:05.574Z,18.30
2022-12-17T09:28:27.104Z,17.10
2022-12-17T09:31:48.275Z,17.67
2022-12-17T09:35:08.653Z,17.93
2022-12-17T09:38:30.983Z,18.10
2022-12-17T09:42:01.824Z,17.80
2022-12-17T09:45:30.445Z,17.67
2022-12-17T09:48:58.942Z,19.07
2022-12-17T09:52:19.153Z,18.60
2022-12-17T09:55:44.063Z,18.90
2022-12-17T09:59:04.310Z,17.63
2022-12-17T10:02:32.195Z,18.03
2022-12-17T10:05:53.899Z,17.77
2022-12-17T10:09:16.649Z,18.63
2022-12-17T10:12:38.863Z,18.03
2022-12-17T10:16:00.275Z,19.07
2022-12-17T10:19:22.363Z,18.70
2022-12-17T10:22:42.660Z,18.87
2022-12-17T10:26:10.079Z,18.70
2022-12-17T10:29:45.704Z,18.73
2022-12-17T10:33:14.200Z,19.53
2022-12-17T10:36:42.650Z,19.63
2022-12-17T10:40:11.577Z,18.60
2022-12-17T10:43:42.536Z,17.93
2022-12-17T10:47:02.807Z,18.37
2022-12-17T10:50:27.509Z,18.93
2022-12-17T10:53:49.076Z,19.13
2022-12-17T10:57:20.112Z,18.97
2022-12-17T11:00:47.415Z,19.57
2022-12-17T11:04:11.725Z,18.63
2022-12-17T11:07:37.432Z,19.67
2022-12-17T11:11:01.434Z,19.40
2022-12-17T11:14:24.096Z,18.33
2022-12-17T11:17:45.034Z,19.00
2022-12-17T11:21:12.681Z,19.23
2022-12-17T11:24:41.016Z,19.40
2022-12-17T11:28:06.705Z,19.43
2022-12-17T11:31:50.642Z,17.53
2022-12-17T11:35:22.029Z,18.33
2022-12-17T11:38:51.634Z,18.73
2022-12-17T11:42:18.200Z,17.97
2022-12-17T11:45:48.234Z,18.40
2022-12-17T11:49:20.584Z,18.20
2022-12-17T11:52:52.570Z,18.60
2022-12-17T11:56:18.913Z,17.83
2022-12-17T11:59:52.514Z,18.47
2022-12-17T12:03:24.144Z,18.43
2022-12-17T12:06:54.556Z,19.53
2022-12-17T12:10:17.966Z,17.37
2022-12-17T12:13:56.294Z,17.70
2022-12-17T12:17:26.334Z,17.83
2022-12-17T12:21:03.602Z,17.67
2022-12-17T12:24:36.039Z,16.70
2022-12-17T12:28:03.993Z,18.63
2022-12-17T12:31:33.279Z,17.10
2022-12-17T12:34:55.986Z,17.00
2022-12-17T12:38:19.463Z,16.40
2022-12-17T12:41:48.282Z,15.53
2022-12-17T12:45:18.623Z,14.83
2022-12-17T12:49:05.123Z,15.10
2022-12-17T12:52:33.584Z,15.07
2022-12-17T12:55:59.503Z,14.00
2022-12-17T12:59:29.921Z,13.83
2022-12-17T13:02:51.520Z,13.47
2022-12-17T13:05:55.330Z,13.07
2022-12-17T13:09:06.045Z,13.77
2022-12-17T13:12:25.353Z,12.60
2022-12-17T13:15:37.116Z,12.50
2022-12-17T13:18:40.760Z,12.90
2022-12-17T13:21:43.850Z,12.33
2022-12-17T13:24:48.170Z,12.50
2022-12-17T13:27:52.195Z,13.60
2022-12-17T13:31:18.700Z,13.40
2022-12-17T13:34:27.041Z,14.57
2022-12-17T13:37:41.345Z,14.23
2022-12-17T13:40:47.579Z,14.97
2022-12-17T13:43:54.309Z,15.70
2022-12-17T13:46:56.966Z,15.03
2022-12-17T13:50:32.804Z,15.20
2022-12-17T13:53:24.180Z,15.30
2022-12-17T13:56:29.239Z,15.70
2022-12-17T13:59:33.195Z,14.53
2022-12-17T14:02:39.264Z,15.00
2022-12-17T14:05:45.929Z,16.73
2022-12-17T14:08:50.607Z,15.80
2022-12-17T14:12:11.291Z,16.90
2022-12-17T14:15:24.252Z,17.80
2022-12-17T14:18:26.940Z,18.63
2022-12-17T14:21:30.474Z,17.07
2022-12-17T14:24:33.775Z,17.47
2022-12-17T14:27:37.625Z,18.03
2022-12-17T14:31:09.678Z,16.70
2022-12-17T14:34:08.738Z,17.07
2022-12-17T14:37:18.418Z,16.60
2022-12-17T14:40:21.162Z,18.07
2022-12-17T14:43:29.917Z,18.03
2022-12-17T14:46:35.847Z,17.90
2022-12-17T14:49:50.897Z,18.80
2022-12-17T14:52:59.969Z,17.93
2022-12-17T14:56:02.583Z,17.33
2022-12-17T14:59:05.143Z,16.70
2022-12-17T15:02:20.761Z,16.00
2022-12-17T15:05:23.508Z,15.47
2022-12-17T15:08:26.368Z,15.47
2022-12-17T15:11:28.936Z,14.73
2022-12-17T15:14:31.487Z,14.07
2022-12-17T15:17:35.414Z,14.10
2022-12-17T15:20:38.329Z,13.30
2022-12-17T15:23:44.000Z,12.37
2022-12-17T15:26:46.974Z,12.40
2022-12-17T15:29:49.541Z,12.57
2022-12-17T15:32:53.515Z,12.93
2022-12-17T15:35:58.662Z,14.30
2022-12-17T15:39:01.373Z,13.30
2022-12-17T15:42:21.340Z,14.47
2022-12-17T15:45:26.803Z,14.37
2022-12-17T15:48:31.168Z,13.93
2022-12-17T15:51:33.769Z,13.27
2022-12-17T15:54:36.333Z,12.90
2022-12-17T15:57:38.909Z,13.13
2022-12-17T16:00:41.514Z,13.23
2022-12-17T16:03:45.556Z,14.03
2022-12-17T16:06:48.192Z,13.83
2022-12-17T16:09:50.816Z,13.37
2022-12-17T16:12:53.375Z,12.70
2022-12-17T16:16:02.124Z,13.00
2022-12-17T16:19:07.726Z,12.63
2022-12-17T16:22:10.325Z,13.03
2022-12-17T16:25:13.276Z,12.77
2022-12-17T16:28:15.845Z,12.60
2022-12-17T16:31:18.481Z,12.30
2022-12-17T16:34:22.498Z,13.03
2022-12-17T16:37:25.071Z,13.47
2022-12-17T16:40:28.134Z,12.97
2022-12-17T16:43:35.200Z,12.87
2022-12-17T16:46:39.909Z,16.13
2022-12-17T16:49:43.905Z,17.40
2022-12-17T16:52:47.519Z,17.07
2022-12-17T16:55:50.844Z,16.37
2022-12-17T16:58:53.496Z,15.10
2022-12-17T17:01:57.073Z,16.23
2022-12-17T17:05:01.166Z,16.23
2022-12-17T17:08:03.850Z,16.53
2022-12-17T17:11:11.945Z,13.80
2022-12-17T17:14:14.551Z,12.30
2022-12-17T17:17:17.129Z,12.57
2022-12-17T17:20:21.097Z,13.47
2022-12-17T17:23:23.661Z,13.93
2022-12-17T17:26:27.008Z,15.73
2022-12-17T17:29:29.609Z,15.70
2022-12-17T17:32:32.251Z,15.07
2022-12-17T17:35:36.198Z,14.93
2022-12-17T17:38:40.924Z,13.00
2022-12-17T17:41:43.673Z,13.97
2022-12-17T17:44:46.233Z,14.73
2022-12-17T17:47:48.828Z,13.60
2022-12-17T17:51:04.201Z,14.30
2022-12-17T17:54:12.563Z,13.23
2022-12-17T17:57:16.870Z,13.73
2022-12-17T18:00:19.627Z,15.37
2022-12-17T18:03:22.256Z,14.53
2022-12-17T18:06:27.366Z,14.63
2022-12-17T18:09:30.009Z,15.10
2022-12-17T18:12:50.275Z,14.83
2022-12-17T18:15:52.866Z,14.63
2022-12-17T18:18:56.785Z,15.53
2022-12-17T18:22:00.726Z,15.43
2022-12-17T18:25:03.449Z,14.67
2022-12-17T18:28:06.060Z,16.13
2022-12-17T18:31:10.807Z,15.60
2022-12-17T18:34:14.780Z,17.30
2022-12-17T18:37:18.757Z,17.53
2022-12-17T18:40:21.358Z,18.00
2022-12-17T18:43:25.944Z,16.03
2022-12-17T18:46:28.678Z,16.13
2022-12-17T18:49:31.280Z,14.87
2022-12-17T18:52:35.234Z,15.20
2022-12-17T18:55:40.378Z,14.77
2022-12-17T18:58:43.598Z,14.13
2022-12-17T19:01:46.993Z,14.87
2022-12-17T19:04:49.751Z,14.60
2022-12-17T19:07:53.701Z,15.03
2022-12-17T19:10:56.264Z,14.87
2022-12-17T19:13:59.067Z,15.80
2022-12-17T19:17:01.889Z,16.77
2022-12-17T19:20:04.998Z,16.37
2022-12-17T19:23:08.949Z,15.33
2022-12-17T19:26:14.015Z,13.77
2022-12-17T19:29:18.864Z,14.27
2022-12-17T19:32:21.467Z,14.23
2022-12-17T19:35:24.062Z,14.90
2022-12-17T19:38:28.093Z,14.60
2022-12-17T19:41:31.929Z,14.57
2022-12-17T19:44:34.495Z,13.87
2022-12-17T19:47:37.076Z,15.20
2022-12-17T19:50:39.633Z,13.17
2022-12-17T19:53:45.045Z,12.90
2022-12-17T19:56:47.654Z,13.83
2022-12-17T19:59:50.216Z,13.37
2022-12-17T20:02:52.995Z,13.40
2022-12-17T20:05:55.863Z,13.07
2022-12-17T20:09:00.522Z,13.03
2022-12-17T20:12:03.145Z,14.50
2022-12-17T20:15:06.587Z,15.33
2022-12-17T20:18:09.197Z,17.27
2022-12-17T20:21:11.771Z,14.27
2022-12-17T20:24:16.579Z,13.70
2022-12-17T20:27:19.623Z,14.10
2022-12-17T20:30:25.238Z,12.73
2022-12-17T20:33:27.848Z,13.47
2022-12-17T20:36:30.507Z,13.20
2022-12-17T20:39:34.546Z,13.83
2022-12-17T20:42:37.226Z,13.40
2022-12-17T20:45:39.925Z,14.13
2022-12-17T20:48:44.094Z,14.03
2022-12-17T20:51:46.702Z,13.77
2022-12-17T20:54:50.612Z,13.23
2022-12-17T20:57:53.357Z,12.43
2022-12-17T21:01:04.096Z,12.53
2022-12-17T21:04:07.413Z,12.57
2022-12-17T21:07:10.036Z,12.03
2022-12-17T21:10:14.150Z,11.80
2022-12-17T21:13:32.024Z,11.87
2022-12-17T21:16:35.027Z,11.53
2022-12-17T21:19:37.966Z,12.63
2022-12-17T21:22:41.529Z,11.40
2022-12-17T21:25:45.446Z,12.37
2022-12-17T21:28:49.899Z,11.80
2022-12-17T21:31:53.371Z,12.57
2022-12-17T21:34:56.055Z,14.27
2022-12-17T21:37:58.657Z,13.83
2022-12-17T21:41:07.568Z,12.73
2022-12-17T21:44:13.917Z,12.00
2022-12-17T21:47:18.161Z,12.80
2022-12-17T21:50:20.777Z,11.77
2022-12-17T21:53:24.155Z,12.00
2022-12-17T21:56:30.731Z,12.23
2022-12-17T21:59:33.320Z,12.47
2022-12-17T22:02:36.042Z,13.07
2022-12-17T22:05:39.328Z,12.70
2022-12-17T22:08:43.029Z,11.60
2022-12-17T22:11:47.437Z,11.90
2022-12-17T22:14:49.378Z,12.50
2022-12-17T22:17:53.607Z,12.27
2022-12-17T22:20:58.141Z,11.17
2022-12-17T22:24:00.730Z,13.40
2022-12-17T22:27:09.459Z,12.73
2022-12-17T22:30:33.213Z,13.20
2022-12-17T22:34:16.676Z,12.47
2022-12-17T22:40:37.273Z,12.00
2022-12-17T22:44:15.006Z,13.47
2022-12-17T22:44:43.046Z,14.33
2022-12-17T22:47:07.615Z,13.10
2022-12-17T22:50:10.989Z,12.20
2022-12-17T22:53:14.152Z,12.07
2022-12-17T22:56:49.459Z,12.63
2022-12-17T22:59:41.663Z,11.70
2022-12-17T23:02:44.344Z,11.10
2022-12-17T23:05:47.159Z,11.10
2022-12-17T23:08:49.801Z,10.63
2022-12-17T23:11:52.377Z,9.70
2022-12-17T23:14:56.299Z,10.27
2022-12-17T23:18:01.373Z,10.03
2022-12-17T23:21:08.587Z,9.83
2022-12-17T23:24:11.279Z,10.30
2022-12-17T23:27:13.879Z,10.27
2022-12-17T23:30:18.525Z,10.67
2022-12-17T23:33:21.199Z,9.77
2022-12-17T23:36:25.817Z,10.23
2022-12-17T23:39:28.414Z,10.27
2022-12-17T23:42:31.102Z,10.83
2022-12-17T23:45:35.037Z,10.10
2022-12-17T23:48:45.360Z,9.90
2022-12-17T23:51:48.478Z,10.47
2022-12-17T23:54:51.036Z,10.67
2022-12-17T23:57:56.629Z,9.67
